Time;durP1;ratioP1;P1;durP2;ratioP2;P2;SDS_P1;SDS_P2;PMS_P1;PMS_P2;Temp;Humidity;BMP_temperature;BMP_pressure;BME280_temperature;BME280_humidity;BME280_pressure;Samples;Min_cycle;Max_cycle;Signal;HPM_P1;HPM_P2
2021/04/22 00:01:39;;;;;;;69.97;14.43;;;8.30;1.00;;;;;;5094602;28;20201;-67
2021/04/22 00:04:06;;;;;;;74.43;13.77;;;8.30;1.00;;;;;;5094496;28;20228;-67
2021/04/22 00:06:33;;;;;;;72.85;15.25;;;8.30;1.00;;;;;;5094798;28;20720;-67
2021/04/22 00:09:00;;;;;;;69.00;13.85;;;8.30;1.00;;;;;;5094517;28;20315;-67
2021/04/22 00:11:26;;;;;;;68.60;14.20;;;8.30;1.00;;;;;;5094327;28;20200;-67
2021/04/22 00:13:52;;;;;;;70.53;13.77;;;8.30;1.00;;;;;;5094515;28;20292;-67
2021/04/22 00:16:19;;;;;;;71.53;14.85;;;8.30;1.00;;;;;;5094584;28;20296;-67
2021/04/22 00:18:45;;;;;;;70.72;14.27;;;8.30;1.00;;;;;;5094236;28;20629;-67
2021/04/22 00:21:12;;;;;;;68.00;12.60;;;8.30;1.00;;;;;;5094303;28;20304;-67
2021/04/22 00:23:39;;;;;;;69.40;13.48;;;8.30;1.00;;;;;;5094081;28;20226;-67
2021/04/22 00:26:05;;;;;;;65.15;12.77;;;8.40;1.00;;;;;;5079379;28;20641;-67
2021/04/22 00:28:32;;;;;;;68.83;13.70;;;8.40;1.00;;;;;;5073595;28;20839;-67
2021/04/22 00:30:58;;;;;;;69.63;13.13;;;8.50;1.00;;;;;;5073838;28;20548;-67
2021/04/22 00:33:25;;;;;;;71.05;13.80;;;8.50;1.00;;;;;;5073903;28;20996;-66
2021/04/22 00:35:52;;;;;;;68.50;12.57;;;8.60;1.00;;;;;;5074191;28;20570;-66
2021/04/22 00:38:19;;;;;;;66.77;13.07;;;8.60;1.00;;;;;;5073682;28;20529;-67
2021/04/22 00:40:47;;;;;;;68.50;13.60;;;8.60;1.00;;;;;;5073586;28;20492;-67
2021/04/22 00:43:17;;;;;;;68.80;13.40;;;8.50;1.00;;;;;;5073575;28;20487;-67
2021/04/22 00:45:44;;;;;;;67.30;13.07;;;8.60;1.00;;;;;;5073543;28;20468;-67
2021/04/22 00:48:11;;;;;;;67.53;12.30;;;8.60;1.00;;;;;;5073587;28;20954;-68
2021/04/22 00:50:39;;;;;;;68.03;12.05;;;8.60;1.00;;;;;;5073455;28;20495;-67
2021/04/22 00:53:06;;;;;;;68.43;13.00;;;8.70;1.00;;;;;;5072996;28;20227;-67
2021/04/22 00:55:33;;;;;;;67.80;13.23;;;8.70;1.00;;;;;;5073336;28;20454;-67
2021/04/22 00:58:01;;;;;;;66.20;11.73;;;8.70;1.00;;;;;;5091787;28;20843;-67
2021/04/22 01:00:31;;;;;;;68.47;12.93;;;8.80;1.00;;;;;;5093551;28;20885;-67
2021/04/22 01:02:58;;;;;;;70.13;14.73;;;8.80;1.00;;;;;;5093192;28;20502;-67
2021/04/22 01:05:27;;;;;;;69.40;13.60;;;8.70;1.00;;;;;;5093463;28;20533;-67
2021/04/22 01:07:54;;;;;;;69.20;13.90;;;8.70;1.00;;;;;;5093400;28;20458;-67
2021/04/22 01:10:21;;;;;;;68.60;13.00;;;8.70;1.00;;;;;;5093331;28;20571;-67
2021/04/22 01:12:48;;;;;;;67.97;13.23;;;8.70;1.00;;;;;;5093245;28;20532;-67
2021/04/22 01:15:18;;;;;;;68.20;14.23;;;8.70;1.00;;;;;;5093240;28;20451;-67
2021/04/22 01:17:45;;;;;;;68.67;12.43;;;8.70;1.00;;;;;;5093199;28;20536;-67
2021/04/22 01:20:14;;;;;;;68.00;12.40;;;8.70;1.00;;;;;;5092919;28;20550;-67
2021/04/22 01:22:42;;;;;;;67.13;12.83;;;8.70;1.00;;;;;;5092836;28;20310;-67
2021/04/22 01:25:12;;;;;;;66.15;11.52;;;8.70;1.00;;;;;;5092892;28;20538;-67
2021/04/22 01:27:39;;;;;;;68.20;13.40;;;8.70;1.00;;;;;;5086021;28;20655;-67
2021/04/22 01:30:08;;;;;;;67.13;12.37;;;8.70;1.00;;;;;;5081036;28;20551;-67
2021/04/22 01:32:34;;;;;;;66.30;12.50;;;8.70;1.00;;;;;;5092621;28;20522;-67
2021/04/22 01:35:01;;;;;;;69.40;12.93;;;8.80;1.00;;;;;;5092978;28;20534;-67
2021/04/22 01:37:29;;;;;;;67.17;12.50;;;8.70;1.00;;;;;;5092859;28;20535;-66
2021/04/22 01:39:56;;;;;;;68.20;12.67;;;8.70;1.00;;;;;;5092555;28;20550;-68
2021/04/22 01:42:23;;;;;;;67.47;12.30;;;8.70;1.00;;;;;;5092429;28;20897;-68
2021/04/22 01:44:49;;;;;;;66.53;11.83;;;8.70;1.00;;;;;;5092792;28;20455;-68
2021/04/22 01:47:16;;;;;;;66.33;12.53;;;8.60;1.00;;;;;;5092972;28;20544;-68
2021/04/22 01:49:42;;;;;;;69.63;13.33;;;8.60;1.00;;;;;;5092805;28;20468;-67
2021/04/22 01:52:08;;;;;;;70.00;13.50;;;8.60;1.00;;;;;;5092393;28;20463;-68
2021/04/22 01:54:34;;;;;;;68.40;13.15;;;8.60;1.00;;;;;;5092652;28;20499;-67
2021/04/22 01:57:02;;;;;;;67.63;12.75;;;8.60;1.00;;;;;;5092433;28;20209;-68
2021/04/22 01:59:28;;;;;;;67.27;12.70;;;8.50;1.00;;;;;;5089894;28;20605;-67
2021/04/22 02:01:55;;;;;;;70.38;12.77;;;8.50;1.00;;;;;;5091862;28;20482;-68
2021/04/22 02:04:21;;;;;;;66.47;11.75;;;8.50;1.00;;;;;;5092419;28;20333;-68
2021/04/22 02:06:47;;;;;;;67.63;12.50;;;8.40;1.00;;;;;;5092231;28;20231;-67
2021/04/22 02:09:14;;;;;;;70.30;12.33;;;8.40;1.00;;;;;;5092119;28;21006;-67
2021/04/22 02:11:40;;;;;;;68.35;13.07;;;8.30;1.00;;;;;;5092251;28;21086;-67
2021/04/22 02:14:07;;;;;;;68.55;13.82;;;8.30;1.00;;;;;;5091968;28;20740;-67
2021/04/22 02:16:34;;;;;;;69.70;13.82;;;8.30;1.00;;;;;;5091840;28;20206;-68
2021/04/22 02:19:00;;;;;;;70.80;14.68;;;8.40;1.00;;;;;;5092064;28;20259;-67
2021/04/22 02:21:26;;;;;;;73.03;12.97;;;8.40;1.00;;;;;;5091919;28;20288;-67
2021/04/22 02:23:53;;;;;;;67.47;13.30;;;8.40;1.00;;;;;;5091750;28;20556;-67
2021/04/22 02:26:19;;;;;;;70.20;14.25;;;8.30;1.00;;;;;;5092412;28;20879;-67
2021/04/22 02:28:45;;;;;;;67.78;13.70;;;8.30;1.00;;;;;;5091834;28;20201;-67
2021/04/22 02:31:13;;;;;;;69.50;14.60;;;8.20;1.00;;;;;;5090548;28;20363;-67
2021/04/22 02:33:39;;;;;;;68.88;14.23;;;8.10;1.00;;;;;;5091669;28;20561;-68
2021/04/22 02:36:06;;;;;;;67.67;12.23;;;8.00;1.00;;;;;;5092118;28;20202;-67
2021/04/22 02:38:33;;;;;;;72.27;14.87;;;8.00;1.00;;;;;;5091822;28;20480;-66
2021/04/22 02:40:59;;;;;;;70.13;15.65;;;8.00;1.00;;;;;;5091677;28;20548;-68
2021/04/22 02:43:26;;;;;;;71.57;14.30;;;8.00;1.00;;;;;;5091387;28;20331;-67
2021/04/22 02:45:54;;;;;;;71.22;14.02;;;8.10;1.00;;;;;;5091608;28;20304;-67
2021/04/22 02:48:22;;;;;;;72.97;14.63;;;8.10;1.00;;;;;;5091799;28;20262;-67
2021/04/22 02:50:52;;;;;;;70.88;14.95;;;8.10;1.00;;;;;;5091411;28;20545;-68
2021/04/22 02:53:19;;;;;;;70.13;13.93;;;8.10;1.00;;;;;;5091429;28;20736;-68
2021/04/22 02:55:46;;;;;;;68.47;14.57;;;8.10;1.00;;;;;;5091536;28;20297;-67
2021/04/22 02:58:13;;;;;;;68.72;13.93;;;8.20;1.00;;;;;;5091390;28;20950;-68
2021/04/22 03:00:41;;;;;;;71.50;15.03;;;8.20;1.00;;;;;;5091586;28;20281;-67
2021/04/22 03:03:08;;;;;;;68.38;13.73;;;8.30;1.00;;;;;;5071738;28;20624;-67
2021/04/22 03:05:35;;;;;;;72.57;14.98;;;8.30;1.00;;;;;;5091443;28;20247;-67
2021/04/22 03:08:03;;;;;;;69.27;15.17;;;8.30;1.00;;;;;;5091505;28;20300;-67
2021/04/22 03:10:30;;;;;;;70.33;14.77;;;8.30;1.00;;;;;;5091191;28;20828;-67
2021/04/22 03:12:57;;;;;;;71.13;17.07;;;8.40;1.00;;;;;;5092204;28;20536;-67
2021/04/22 03:15:24;;;;;;;73.28;15.95;;;8.40;1.00;;;;;;5092370;28;20482;-67
2021/04/22 03:17:51;;;;;;;70.30;15.75;;;8.40;1.00;;;;;;5091896;28;20588;-67
2021/04/22 03:20:18;;;;;;;77.47;17.10;;;8.40;1.00;;;;;;5091703;28;20228;-67
2021/04/22 03:22:46;;;;;;;73.10;17.00;;;8.40;1.00;;;;;;5091939;28;20483;-67
2021/04/22 03:25:14;;;;;;;71.07;16.45;;;8.40;1.00;;;;;;5091568;28;21047;-67
2021/04/22 03:27:41;;;;;;;72.18;16.70;;;8.40;1.00;;;;;;5091716;28;20292;-67
2021/04/22 03:30:10;;;;;;;72.57;16.20;;;8.40;1.00;;;;;;5091635;28;20258;-68
2021/04/22 03:32:37;;;;;;;69.37;14.60;;;8.40;1.00;;;;;;5090142;28;21027;-67
2021/04/22 03:35:04;;;;;;;76.10;17.20;;;8.50;1.00;;;;;;5093326;28;20475;-68
2021/04/22 03:37:30;;;;;;;73.60;16.05;;;8.50;1.00;;;;;;5095401;28;20209;-67
2021/04/22 03:39:57;;;;;;;71.60;17.53;;;8.50;1.00;;;;;;5095163;28;20320;-68
2021/04/22 03:42:24;;;;;;;71.70;17.23;;;8.50;1.00;;;;;;5095077;28;20986;-68
2021/04/22 03:44:50;;;;;;;75.88;18.70;;;8.40;1.00;;;;;;5095307;28;20477;-67
2021/04/22 03:47:17;;;;;;;74.28;19.45;;;8.40;1.00;;;;;;5095401;28;20292;-67
2021/04/22 03:49:43;;;;;;;75.60;17.48;;;8.40;1.00;;;;;;5094939;28;20644;-67
2021/04/22 03:52:11;;;;;;;78.80;18.20;;;8.30;1.00;;;;;;5095243;28;20220;-67
2021/04/22 03:54:37;;;;;;;73.88;18.65;;;8.30;1.00;;;;;;5096034;28;20269;-67
2021/04/22 03:57:06;;;;;;;74.20;18.37;;;8.30;1.00;;;;;;5096422;28;20301;-68
2021/04/22 03:59:33;;;;;;;75.30;17.20;;;8.20;1.00;;;;;;5095236;28;20989;-68
2021/04/22 04:01:59;;;;;;;72.13;18.65;;;8.20;1.00;;;;;;5094799;28;20209;-68
2021/04/22 04:04:25;;;;;;;78.45;19.05;;;8.10;1.00;;;;;;5094864;28;20231;-67
2021/04/22 04:06:52;;;;;;;76.63;18.90;;;8.10;1.00;;;;;;5094697;28;20209;-67
2021/04/22 04:09:18;;;;;;;74.57;19.02;;;8.10;1.00;;;;;;5094761;28;20475;-67
2021/04/22 04:11:44;;;;;;;74.90;18.47;;;8.00;1.00;;;;;;5094874;28;20234;-67
2021/04/22 04:14:11;;;;;;;72.78;18.15;;;8.00;1.00;;;;;;5094729;28;20471;-67
2021/04/22 04:16:38;;;;;;;75.70;18.03;;;8.00;1.00;;;;;;5094833;28;20806;-67
2021/04/22 04:19:04;;;;;;;72.45;17.55;;;7.90;1.00;;;;;;5094375;28;20469;-67
2021/04/22 04:21:31;;;;;;;76.30;18.58;;;7.90;1.00;;;;;;5094435;28;20216;-67
2021/04/22 04:23:57;;;;;;;75.22;19.30;;;7.80;1.00;;;;;;5094515;28;20323;-67
2021/04/22 04:26:24;;;;;;;76.13;19.80;;;7.80;1.00;;;;;;5096119;28;20305;-67
2021/04/22 04:28:50;;;;;;;76.73;19.80;;;7.80;1.00;;;;;;5095528;28;20611;-67
2021/04/22 04:31:18;;;;;;;78.13;19.67;;;7.70;1.00;;;;;;5095603;28;20451;-67
2021/04/22 04:33:45;;;;;;;78.60;20.20;;;7.60;1.00;;;;;;5095285;28;20664;-67
2021/04/22 04:36:12;;;;;;;77.78;19.70;;;7.60;1.00;;;;;;5095384;28;21014;-67
2021/04/22 04:38:38;;;;;;;76.60;19.80;;;7.50;1.00;;;;;;5095879;28;20207;-67
2021/04/22 04:41:04;;;;;;;77.70;20.23;;;7.50;1.00;;;;;;5095323;28;20279;-67
2021/04/22 04:43:31;;;;;;;73.35;18.25;;;7.50;1.00;;;;;;5094205;28;20773;-67
2021/04/22 04:45:57;;;;;;;73.68;17.27;;;7.50;1.00;;;;;;5093967;28;20214;-67
2021/04/22 04:48:24;;;;;;;78.32;19.55;;;7.40;1.00;;;;;;5093934;28;20300;-67
2021/04/22 04:50:51;;;;;;;78.25;18.50;;;7.40;1.00;;;;;;5093851;28;20312;-67
2021/04/22 04:53:17;;;;;;;77.25;19.75;;;7.40;1.00;;;;;;5094160;28;20223;-67
2021/04/22 04:55:43;;;;;;;77.15;18.58;;;7.40;1.00;;;;;;5094171;28;20650;-68
2021/04/22 04:58:10;;;;;;;75.25;17.98;;;7.40;1.00;;;;;;5094259;28;20630;-67
2021/04/22 05:00:36;;;;;;;80.10;19.25;;;7.40;1.00;;;;;;5094994;28;20727;-67
2021/04/22 05:03:02;;;;;;;79.15;19.80;;;7.40;1.00;;;;;;5094428;28;20269;-67
2021/04/22 05:05:30;;;;;;;75.75;18.65;;;7.40;1.00;;;;;;5095016;28;20598;-67
2021/04/22 05:07:56;;;;;;;78.10;18.25;;;7.40;1.00;;;;;;5094451;28;20244;-67
2021/04/22 05:10:23;;;;;;;75.47;18.93;;;7.40;1.00;;;;;;5094347;28;20307;-67
2021/04/22 05:12:49;;;;;;;75.45;19.52;;;7.40;1.00;;;;;;5094440;28;20537;-68
2021/04/22 05:15:17;;;;;;;79.60;21.27;;;7.40;1.00;;;;;;5093840;28;20244;-68
2021/04/22 05:17:43;;;;;;;75.93;19.00;;;7.40;1.00;;;;;;5093558;28;20255;-68
2021/04/22 05:20:10;;;;;;;79.20;20.77;;;7.40;1.00;;;;;;5094002;28;20230;-68
2021/04/22 05:22:38;;;;;;;77.85;19.60;;;7.40;1.00;;;;;;5093923;28;20210;-68
2021/04/22 05:25:05;;;;;;;77.22;20.80;;;7.40;1.00;;;;;;5094253;28;20303;-68
2021/04/22 05:27:32;;;;;;;79.97;21.80;;;7.40;1.00;;;;;;5094179;28;20312;-66
2021/04/22 05:29:58;;;;;;;83.85;22.02;;;7.50;1.00;;;;;;5093909;28;20264;-68
2021/04/22 05:32:25;;;;;;;78.18;21.90;;;7.50;1.00;;;;;;5093635;28;20231;-67
2021/04/22 05:34:51;;;;;;;82.00;22.25;;;7.60;1.00;;;;;;5093638;28;20283;-68
2021/04/22 05:37:18;;;;;;;78.57;21.00;;;7.60;1.00;;;;;;5093715;28;20299;-67
2021/04/22 05:39:46;;;;;;;79.22;21.77;;;7.70;1.00;;;;;;5093884;28;20378;-68
2021/04/22 05:42:12;;;;;;;81.18;21.55;;;7.80;1.00;;;;;;5093250;28;20343;-68
2021/04/22 05:44:38;;;;;;;87.07;22.38;;;7.80;1.00;;;;;;5093115;28;20320;-68
2021/04/22 05:47:05;;;;;;;84.88;23.10;;;7.90;1.00;;;;;;5093050;28;20235;-68
2021/04/22 05:49:31;;;;;;;82.35;25.13;;;7.90;1.00;;;;;;5093147;28;20257;-68
2021/04/22 05:51:57;;;;;;;85.65;24.02;;;8.10;1.00;;;;;;5093084;28;20221;-67
2021/04/22 05:54:24;;;;;;;84.00;23.80;;;8.20;1.00;;;;;;5093014;28;20293;-68
2021/04/22 05:56:51;;;;;;;82.15;23.33;;;8.30;1.00;;;;;;5092374;28;20481;-68
2021/04/22 05:59:17;;;;;;;85.35;23.48;;;8.50;1.00;;;;;;5092965;28;20643;-68
2021/04/22 06:01:44;;;;;;;84.90;24.40;;;8.60;1.00;;;;;;5093456;28;20697;-68
2021/04/22 06:04:10;;;;;;;86.83;24.13;;;8.80;1.00;;;;;;5093253;28;21071;-68
2021/04/22 06:06:36;;;;;;;80.53;23.05;;;9.00;1.00;;;;;;5093828;28;20497;-68
2021/04/22 06:09:04;;;;;;;80.70;21.50;;;9.10;1.00;;;;;;5093949;28;20313;-68
2021/04/22 06:11:30;;;;;;;77.70;21.67;;;9.30;1.00;;;;;;5092716;28;20534;-68
2021/04/22 06:13:57;;;;;;;80.80;22.37;;;9.40;1.00;;;;;;5092689;28;21012;-68
2021/04/22 06:16:23;;;;;;;81.17;23.47;;;9.60;1.00;;;;;;5092471;28;21005;-68
2021/04/22 06:18:52;;;;;;;85.83;22.67;;;9.70;1.00;;;;;;5092586;28;20497;-68
2021/04/22 06:21:18;;;;;;;81.03;22.50;;;9.90;1.00;;;;;;5093182;28;20531;-68
2021/04/22 06:23:44;;;;;;;81.33;22.07;;;10.00;1.00;;;;;;5092689;28;20573;-68
2021/04/22 06:26:11;;;;;;;84.67;23.23;;;10.10;1.00;;;;;;5092686;28;20892;-68
2021/04/22 06:28:37;;;;;;;79.60;21.40;;;10.30;1.00;;;;;;5092499;28;20868;-68
2021/04/22 06:31:04;;;;;;;83.47;21.50;;;10.40;1.00;;;;;;5092458;28;20544;-68
2021/04/22 06:33:31;;;;;;;81.40;20.53;;;10.40;1.00;;;;;;5092363;28;20469;-68
2021/04/22 06:35:57;;;;;;;78.17;20.33;;;10.50;1.00;;;;;;5092437;28;20535;-68
2021/04/22 06:38:24;;;;;;;78.17;19.60;;;10.50;1.00;;;;;;5092393;28;20500;-68
2021/04/22 06:40:50;;;;;;;77.87;20.07;;;10.60;1.00;;;;;;5092417;28;20523;-68
2021/04/22 06:43:16;;;;;;;77.10;19.23;;;10.70;1.00;;;;;;5092333;28;20592;-68
2021/04/22 06:45:45;;;;;;;78.13;21.23;;;10.70;1.00;;;;;;5093051;28;20532;-68
2021/04/22 06:48:15;;;;;;;80.10;20.00;;;10.80;1.00;;;;;;5092773;28;20461;-68
2021/04/22 06:50:41;;;;;;;76.20;19.70;;;10.80;1.00;;;;;;5092581;28;20473;-67
2021/04/22 06:53:08;;;;;;;76.67;20.40;;;10.80;1.00;;;;;;5092824;28;20963;-68
2021/04/22 06:55:35;;;;;;;77.03;19.33;;;10.90;1.00;;;;;;5092300;28;20531;-68
2021/04/22 06:58:04;;;;;;;76.47;18.77;;;10.80;1.00;;;;;;5092692;28;20545;-68
2021/04/22 07:00:32;;;;;;;78.37;19.10;;;10.80;1.00;;;;;;5092417;28;20549;-68
2021/04/22 07:02:58;;;;;;;75.33;20.17;;;10.80;1.00;;;;;;5092060;28;20545;-66
2021/04/22 07:05:26;;;;;;;76.73;20.13;;;10.80;1.00;;;;;;5092209;28;20535;-66
2021/04/22 07:07:52;;;;;;;80.47;19.77;;;10.80;1.00;;;;;;5092671;28;20477;-67
2021/04/22 07:10:19;;;;;;;80.73;20.20;;;10.90;1.00;;;;;;5096100;28;21007;-67
2021/04/22 07:12:45;;;;;;;75.73;19.60;;;11.00;1.00;;;;;;5096119;28;21035;-67
2021/04/22 07:15:13;;;;;;;77.73;19.23;;;11.00;1.00;;;;;;5095948;28;20980;-67
2021/04/22 07:17:40;;;;;;;77.20;20.93;;;11.10;1.00;;;;;;5096031;28;20460;-67
2021/04/22 07:20:08;;;;;;;77.20;17.53;;;11.20;1.00;;;;;;5096049;28;20570;-67
2021/04/22 07:22:35;;;;;;;77.40;18.77;;;11.40;1.00;;;;;;5096343;28;20457;-67
2021/04/22 07:25:02;;;;;;;73.77;17.77;;;11.40;1.00;;;;;;5095839;28;20568;-67
2021/04/22 07:27:28;;;;;;;76.30;17.87;;;11.50;1.00;;;;;;5096251;28;20495;-67
2021/04/22 07:29:55;;;;;;;73.57;17.30;;;11.60;1.00;;;;;;5096014;28;20896;-67
2021/04/22 07:32:21;;;;;;;74.07;18.43;;;11.70;1.00;;;;;;5095670;28;20452;-67
2021/04/22 07:34:48;;;;;;;75.10;16.90;;;11.80;1.00;;;;;;5095796;28;20524;-68
2021/04/22 07:37:15;;;;;;;74.23;17.40;;;11.90;1.00;;;;;;5095832;28;20442;-68
2021/04/22 07:39:43;;;;;;;73.40;16.53;;;12.00;1.00;;;;;;5095957;28;20465;-68
2021/04/22 07:42:09;;;;;;;72.00;17.30;;;12.10;1.00;;;;;;5095509;28;21155;-67
2021/04/22 07:44:36;;;;;;;78.13;18.00;;;12.20;1.00;;;;;;5095773;28;20576;-68
2021/04/22 07:47:03;;;;;;;76.37;16.20;;;12.40;1.00;;;;;;5093244;28;20454;-67
2021/04/22 07:49:30;;;;;;;74.80;18.20;;;12.50;1.00;;;;;;5094784;28;20499;-67
2021/04/22 07:51:57;;;;;;;75.03;18.40;;;12.60;1.00;;;;;;5094743;28;20489;-67
2021/04/22 07:54:24;;;;;;;79.90;17.00;;;12.80;1.00;;;;;;5095446;28;20533;-67
2021/04/22 07:56:51;;;;;;;72.80;16.07;;;12.90;1.00;;;;;;5095072;28;20480;-68
2021/04/22 07:59:17;;;;;;;71.47;16.93;;;13.10;1.00;;;;;;5094804;28;20525;-67
2021/04/22 08:01:44;;;;;;;71.07;15.57;;;13.20;1.00;;;;;;5093639;28;20450;-67
2021/04/22 08:04:10;;;;;;;72.60;15.67;;;13.20;1.00;;;;;;5095164;28;20478;-67
2021/04/22 08:06:37;;;;;;;76.23;15.63;;;13.30;1.00;;;;;;5095815;28;20531;-68
2021/04/22 08:09:04;;;;;;;70.07;14.80;;;13.40;1.00;;;;;;5095268;28;21065;-67
2021/04/22 08:11:31;;;;;;;67.50;13.87;;;13.40;1.00;;;;;;5094956;28;20446;-67
2021/04/22 08:13:59;;;;;;;72.10;15.07;;;13.30;1.00;;;;;;5094611;28;20499;-68
2021/04/22 08:16:25;;;;;;;73.97;15.23;;;13.30;1.00;;;;;;5094838;28;20446;-68
2021/04/22 08:18:51;;;;;;;71.13;14.67;;;13.40;1.00;;;;;;5094491;28;20671;-68
2021/04/22 08:21:19;;;;;;;77.77;13.80;;;13.50;1.00;;;;;;5094063;28;20451;-68
2021/04/22 08:23:45;;;;;;;73.87;14.00;;;13.50;1.00;;;;;;5094665;28;20573;-68
2021/04/22 08:26:16;;;;;;;75.63;16.40;;;13.60;1.00;;;;;;5094610;28;20537;-67
2021/04/22 08:28:43;;;;;;;73.60;14.57;;;13.70;1.00;;;;;;5094256;28;20455;-67
2021/04/22 08:31:13;;;;;;;73.07;15.67;;;13.70;1.00;;;;;;5094248;28;20934;-68
2021/04/22 08:33:41;;;;;;;70.47;14.67;;;13.70;1.00;;;;;;5077324;28;20526;-67
2021/04/22 08:36:08;;;;;;;71.20;15.53;;;13.80;1.00;;;;;;5092645;28;20442;-67
2021/04/22 08:38:35;;;;;;;74.70;15.30;;;14.00;1.00;;;;;;5094219;28;20533;-68
2021/04/22 08:41:03;;;;;;;69.50;14.80;;;14.10;1.00;;;;;;5093993;28;21041;-67
2021/04/22 08:43:31;;;;;;;79.50;16.50;;;14.20;1.00;;;;;;5093903;28;20478;-67
2021/04/22 08:45:57;;;;;;;70.80;16.07;;;14.30;1.00;;;;;;5093898;28;20458;-68
2021/04/22 08:48:26;;;;;;;70.87;13.70;;;14.50;1.00;;;;;;5094117;28;20950;-67
2021/04/22 08:50:52;;;;;;;71.13;14.87;;;14.50;1.00;;;;;;5093687;28;20470;-68
2021/04/22 08:53:23;;;;;;;71.53;14.73;;;14.60;1.00;;;;;;5094105;28;20478;-68
2021/04/22 08:55:49;;;;;;;74.33;13.40;;;14.90;1.00;;;;;;5093968;28;20447;-69
2021/04/22 08:58:16;;;;;;;72.57;15.00;;;15.10;1.00;;;;;;5094462;28;20442;-68
2021/04/22 09:00:44;;;;;;;74.67;13.60;;;15.20;1.00;;;;;;5093610;28;21021;-68
2021/04/22 09:03:11;;;;;;;71.07;14.10;;;15.30;1.00;;;;;;5093846;28;20533;-68
2021/04/22 09:05:39;;;;;;;72.13;13.10;;;15.30;1.00;;;;;;5093502;28;20446;-68
2021/04/22 09:08:06;;;;;;;70.73;13.40;;;15.40;1.00;;;;;;5093689;28;20541;-68
2021/04/22 09:10:33;;;;;;;69.07;12.47;;;15.50;1.00;;;;;;5093455;28;20547;-67
2021/04/22 09:13:01;;;;;;;68.77;12.00;;;15.40;1.00;;;;;;5093264;28;21032;-67
2021/04/22 09:15:28;;;;;;;65.40;11.10;;;15.50;1.00;;;;;;5080434;28;20472;-67
2021/04/22 09:18:00;;;;;;;68.97;11.87;;;15.40;1.00;;;;;;5073052;28;20557;-68
2021/04/22 09:20:32;;;;;;;68.67;10.93;;;15.30;1.00;;;;;;5072923;28;20542;-67
2021/04/22 09:22:59;;;;;;;64.70;10.60;;;15.30;1.00;;;;;;5072764;28;21046;-65
2021/04/22 09:25:27;;;;;;;63.77;10.70;;;15.40;1.00;;;;;;5073241;28;20950;-68
2021/04/22 09:28:03;;;;;;;65.90;10.70;;;15.60;1.00;;;;;;5072719;28;20534;-68
2021/04/22 09:30:33;;;;;;;68.60;11.33;;;15.60;1.00;;;;;;5073095;28;20475;-67
2021/04/22 09:33:00;;;;;;;68.20;11.20;;;15.70;1.00;;;;;;5071923;28;20443;-68
2021/04/22 09:35:27;;;;;;;65.60;11.10;;;15.80;1.00;;;;;;5072947;28;20452;-68
2021/04/22 09:37:55;;;;;;;71.40;11.97;;;16.00;1.00;;;;;;5072747;28;20456;-67
2021/04/22 09:40:25;;;;;;;65.90;11.87;;;15.90;1.00;;;;;;5072799;28;20476;-67
2021/04/22 09:42:53;;;;;;;70.50;11.27;;;16.10;1.00;;;;;;5072561;28;20964;-66
2021/04/22 09:45:22;;;;;;;68.03;10.40;;;16.20;1.00;;;;;;5072155;28;20772;-66
2021/04/22 09:47:49;;;;;;;65.83;10.07;;;16.30;1.00;;;;;;5075205;28;20596;-67
2021/04/22 09:50:17;;;;;;;69.73;10.00;;;16.60;1.00;;;;;;5092967;28;20884;-67
2021/04/22 09:52:46;;;;;;;71.20;11.00;;;16.80;1.00;;;;;;5092689;28;20892;-67
2021/04/22 09:55:14;;;;;;;64.47;10.13;;;16.90;1.00;;;;;;5093202;28;20484;-67
2021/04/22 09:57:43;;;;;;;64.67;9.80;;;17.10;1.00;;;;;;5092699;28;20484;-67
2021/04/22 10:00:14;;;;;;;68.47;10.27;;;17.40;1.00;;;;;;5092482;28;20521;-67
2021/04/22 10:02:52;;;;;;;65.33;9.50;;;17.50;1.00;;;;;;5092541;28;20451;-68
2021/04/22 10:05:20;;;;;;;65.50;9.20;;;17.60;1.00;;;;;;5092663;28;20483;-68
2021/04/22 10:07:47;;;;;;;68.90;9.43;;;17.90;1.00;;;;;;5093617;28;20477;-68
2021/04/22 10:10:16;;;;;;;63.87;8.03;;;18.60;1.00;;;;;;5092629;28;20497;-68
2021/04/22 10:12:44;;;;;;;65.43;9.00;;;19.40;1.00;;;;;;5092335;28;20442;-66
2021/04/22 10:15:12;;;;;;;66.50;8.80;;;20.10;1.00;;;;;;5092130;28;20951;-68
2021/04/22 10:17:39;;;;;;;63.20;8.70;;;20.50;1.00;;;;;;5090854;28;20450;-67
2021/04/22 10:20:09;;;;;;;64.97;9.03;;;20.90;1.00;;;;;;5083374;28;20548;-68
2021/04/22 10:22:37;;;;;;;63.77;7.20;;;21.40;1.00;;;;;;5071720;28;20465;-68
2021/04/22 10:25:06;;;;;;;65.33;8.10;;;22.00;1.00;;;;;;5072224;28;20583;-69
2021/04/22 10:27:32;;;;;;;67.73;8.87;;;22.50;1.00;;;;;;5071924;28;20600;-67
2021/04/22 10:30:00;;;;;;;63.97;8.83;;;23.00;1.00;;;;;;5071688;28;20554;-67
2021/04/22 10:32:28;;;;;;;66.20;8.97;;;23.70;1.00;;;;;;5071964;28;20469;-67
2021/04/22 10:34:56;;;;;;;64.10;8.40;;;24.50;1.00;;;;;;5071893;28;20448;-67
2021/04/22 10:37:24;;;;;;;62.00;7.80;;;25.00;1.00;;;;;;5071999;28;20604;-67
2021/04/22 10:39:53;;;;;;;64.70;8.17;;;25.20;1.00;;;;;;5071621;28;20608;-67
2021/04/22 10:42:20;;;;;;;63.23;8.23;;;25.10;1.00;;;;;;5071490;28;20513;-67
2021/04/22 10:44:49;;;;;;;69.30;8.37;;;25.50;1.00;;;;;;5071179;28;20537;-67
2021/04/22 10:47:17;;;;;;;62.13;7.40;;;25.80;1.00;;;;;;5071385;28;21010;-67
2021/04/22 10:49:44;;;;;;;65.53;7.73;;;26.20;1.00;;;;;;5070730;28;20555;-67
2021/04/22 10:52:13;;;;;;;61.60;7.60;;;26.40;1.00;;;;;;5071253;28;20886;-67
2021/04/22 10:54:42;;;;;;;61.10;6.90;;;27.00;1.00;;;;;;5071932;28;20475;-67
2021/04/22 10:57:10;;;;;;;64.67;7.63;;;27.50;1.00;;;;;;5071383;28;20459;-67
2021/04/22 10:59:36;;;;;;;62.30;6.63;;;28.00;1.00;;;;;;5071511;28;20554;-67
2021/04/22 11:02:18;;;;;;;62.17;6.90;;;28.40;1.00;;;;;;5071357;28;21094;-67
2021/04/22 11:04:45;;;;;;;60.93;6.30;;;28.80;1.00;;;;;;5071454;28;21107;-68
2021/04/22 11:07:18;;;;;;;61.90;6.40;;;28.80;1.00;;;;;;5071477;28;20451;-68
2021/04/22 11:09:45;;;;;;;62.60;6.93;;;28.80;1.00;;;;;;5071053;28;20475;-68
2021/04/22 11:12:20;;;;;;;61.17;6.43;;;29.00;1.00;;;;;;5071123;28;20454;-66
2021/04/22 11:14:51;;;;;;;60.40;6.13;;;29.50;1.00;;;;;;5071462;28;20508;-67
2021/04/22 11:17:19;;;;;;;61.77;5.93;;;29.40;1.00;;;;;;5071304;28;20542;-67
2021/04/22 11:19:47;;;;;;;61.97;5.73;;;28.80;1.00;;;;;;5070961;28;20516;-67
2021/04/22 11:22:16;;;;;;;61.07;5.67;;;28.70;1.00;;;;;;5087002;28;20446;-67
2021/04/22 11:24:45;;;;;;;61.73;5.80;;;28.80;1.00;;;;;;5071216;28;20983;-68
2021/04/22 11:27:15;;;;;;;60.30;5.80;;;29.00;1.00;;;;;;5070126;28;20887;-67
2021/04/22 11:29:45;;;;;;;58.40;4.97;;;29.30;1.00;;;;;;5071111;28;20474;-67
2021/04/22 11:32:22;;;;;;;60.80;6.30;;;29.40;1.00;;;;;;5071037;28;20807;-68
2021/04/22 11:34:49;;;;;;;64.00;5.80;;;29.40;1.00;;;;;;5070617;28;20443;-67
2021/04/22 11:37:19;;;;;;;61.00;5.80;;;29.30;1.00;;;;;;5070953;28;20496;-67
2021/04/22 11:39:46;;;;;;;62.30;4.97;;;29.30;1.00;;;;;;5070124;28;20463;-67
2021/04/22 11:42:13;;;;;;;59.40;4.70;;;29.60;1.00;;;;;;5070891;28;20443;-67
2021/04/22 11:44:41;;;;;;;61.67;5.10;;;30.00;1.00;;;;;;5070957;28;20482;-67
2021/04/22 11:47:27;;;;;;;58.57;4.57;;;30.10;1.00;;;;;;5070814;28;20968;-68
2021/04/22 11:50:12;;;;;;;59.77;5.60;;;30.40;1.00;;;;;;5070622;28;20997;-67
2021/04/22 11:52:47;;;;;;;60.77;5.20;;;30.40;1.00;;;;;;5080292;28;20467;-67
2021/04/22 11:55:19;;;;;;;59.57;5.03;;;29.80;1.00;;;;;;5091300;28;20829;-67
2021/04/22 11:58:01;;;;;;;62.00;5.10;;;29.70;1.00;;;;;;5093887;28;20533;-67
2021/04/22 12:00:30;;;;;;;62.07;5.00;;;30.40;1.00;;;;;;5092904;28;20471;-67
2021/04/22 12:02:57;;;;;;;58.57;4.90;;;30.90;1.00;;;;;;5092973;28;20532;-67
2021/04/22 12:05:25;;;;;;;59.37;4.47;;;31.50;1.00;;;;;;5092736;28;21142;-68
2021/04/22 12:07:57;;;;;;;58.37;4.60;;;31.50;1.00;;;;;;5092674;28;20972;-68
2021/04/22 12:10:23;;;;;;;59.00;5.10;;;31.70;1.00;;;;;;5092586;28;20554;-67
2021/04/22 12:12:51;;;;;;;59.00;4.60;;;32.00;1.00;;;;;;5093761;28;20468;-67
2021/04/22 12:15:20;;;;;;;58.20;4.37;;;32.30;1.00;;;;;;5094579;28;20933;-67
2021/04/22 12:17:47;;;;;;;60.37;4.33;;;32.20;1.00;;;;;;5094438;28;21030;-67
2021/04/22 12:20:18;;;;;;;58.83;4.40;;;31.90;1.00;;;;;;5094560;28;20549;-67
2021/04/22 12:22:47;;;;;;;61.83;4.87;;;31.80;1.00;;;;;;5092877;28;20457;-67
2021/04/22 12:25:16;;;;;;;61.93;4.83;;;31.90;1.00;;;;;;5087561;28;20489;-66
2021/04/22 12:27:50;;;;;;;59.77;5.00;;;32.10;1.00;;;;;;5074316;28;20538;-67
2021/04/22 12:30:27;;;;;;;58.70;4.37;;;32.50;1.00;;;;;;5074324;28;20547;-67
2021/04/22 12:32:57;;;;;;;60.60;4.57;;;32.80;1.00;;;;;;5073799;28;20449;-67
2021/04/22 12:35:26;;;;;;;59.00;4.50;;;32.70;1.00;;;;;;5073761;28;20482;-67
2021/04/22 12:37:53;;;;;;;59.50;4.30;;;32.90;1.00;;;;;;5074017;28;20479;-67
2021/04/22 12:40:21;;;;;;;60.50;4.67;;;33.20;1.00;;;;;;5073554;28;20991;-67
2021/04/22 12:42:47;;;;;;;59.30;4.47;;;33.30;1.00;;;;;;5073675;28;20487;-67
2021/04/22 12:45:17;;;;;;;57.87;4.43;;;33.20;1.00;;;;;;5073615;28;21063;-67